createdAt,value
2022-08-17T00:02:15.312Z,14.69
2022-08-17T00:04:52.473Z,14.70
2022-08-17T00:07:22.222Z,14.62
2022-08-17T00:09:48.784Z,14.61
2022-08-17T00:12:40.764Z,14.60
2022-08-17T00:15:02.509Z,14.59
2022-08-17T00:17:32.104Z,14.49
2022-08-17T00:20:00.215Z,14.49
2022-08-17T00:22:33.253Z,14.55
2022-08-17T00:25:02.893Z,14.51
2022-08-17T00:27:29.331Z,14.46
2022-08-17T00:29:55.795Z,14.38
2022-08-17T00:33:12.120Z,14.38
2022-08-17T00:35:11.235Z,14.36
2022-08-17T00:37:37.718Z,14.37
2022-08-17T00:40:05.030Z,14.38
2022-08-17T00:42:31.873Z,14.47
2022-08-17T00:44:59.223Z,14.47
2022-08-17T00:47:26.460Z,14.23
2022-08-17T00:49:53.150Z,14.41
2022-08-17T00:52:23.539Z,14.44
2022-08-17T00:54:53.901Z,14.42
2022-08-17T00:57:33.130Z,14.34
2022-08-17T01:00:08.343Z,14.32
2022-08-17T01:02:42.764Z,14.39
2022-08-17T01:05:19.050Z,14.35
2022-08-17T01:07:47.678Z,14.21
2022-08-17T01:11:00.038Z,14.16
2022-08-17T01:13:03.838Z,14.14
2022-08-17T01:15:34.832Z,14.18
2022-08-17T01:18:01.893Z,14.22
2022-08-17T01:20:28.440Z,14.29
2022-08-17T01:22:56.391Z,14.30
2022-08-17T01:25:22.931Z,14.27
2022-08-17T01:27:49.894Z,14.27
2022-08-17T01:30:58.377Z,14.24
2022-08-17T01:33:04.329Z,14.13
2022-08-17T01:35:30.919Z,14.24
2022-08-17T01:37:57.438Z,14.13
2022-08-17T01:40:39.860Z,14.06
2022-08-17T01:43:16.106Z,14.06
2022-08-17T01:45:49.331Z,14.11
2022-08-17T01:48:32.673Z,14.09
2022-08-17T01:50:59.523Z,14.13
2022-08-17T01:53:34.866Z,14.19
2022-08-17T01:56:08.238Z,14.27
2022-08-17T01:58:36.052Z,14.26
2022-08-17T02:01:02.846Z,14.24
2022-08-17T02:03:30.256Z,14.27
2022-08-17T02:05:56.910Z,14.23
2022-08-17T02:08:38.653Z,14.21
2022-08-17T02:11:12.089Z,14.23
2022-08-17T02:13:39.021Z,14.15
2022-08-17T02:16:06.000Z,14.15
2022-08-17T02:18:35.797Z,14.08
2022-08-17T02:21:02.490Z,14.08
2022-08-17T02:23:32.364Z,14.10
2022-08-17T02:26:00.561Z,13.99
2022-08-17T02:28:28.626Z,14.03
2022-08-17T02:31:01.843Z,14.01
2022-08-17T02:33:42.030Z,13.98
2022-08-17T02:36:12.344Z,13.90
2022-08-17T02:38:40.717Z,13.90
2022-08-17T02:41:07.639Z,13.81
2022-08-17T02:43:36.712Z,13.87
2022-08-17T02:46:03.325Z,13.95
2022-08-17T02:48:31.063Z,14.05
2022-08-17T02:50:58.280Z,14.02
2022-08-17T02:53:25.624Z,13.98
2022-08-17T02:55:52.706Z,13.89
2022-08-17T02:58:34.404Z,13.83
2022-08-17T03:01:06.338Z,13.83
2022-08-17T03:03:33.478Z,13.78
2022-08-17T03:06:00.510Z,13.79
2022-08-17T03:08:27.210Z,13.73
2022-08-17T03:10:53.934Z,13.74
2022-08-17T03:13:20.689Z,13.77
2022-08-17T03:15:48.946Z,13.74
2022-08-17T03:18:25.409Z,13.70
2022-08-17T03:20:59.199Z,13.69
2022-08-17T03:23:27.525Z,13.67
2022-08-17T03:25:56.795Z,13.62
2022-08-17T03:28:23.857Z,13.73
2022-08-17T03:30:51.549Z,13.74
2022-08-17T03:33:19.200Z,13.79
2022-08-17T03:35:46.481Z,13.85
2022-08-17T03:38:15.826Z,13.87
2022-08-17T03:40:58.156Z,13.88
2022-08-17T03:43:29.480Z,13.84
2022-08-17T03:46:33.993Z,13.80
2022-08-17T03:49:22.859Z,13.71
2022-08-17T03:52:07.773Z,13.65
2022-08-17T03:54:52.735Z,13.65
2022-08-17T03:57:19.534Z,13.65
2022-08-17T03:59:46.284Z,13.64
2022-08-17T04:02:24.264Z,13.63
2022-08-17T04:04:52.105Z,13.67
2022-08-17T04:07:20.831Z,13.71
2022-08-17T04:09:47.717Z,13.78
2022-08-17T04:12:16.496Z,13.80
2022-08-17T04:14:53.187Z,13.80
2022-08-17T04:17:26.511Z,13.87
2022-08-17T04:19:55.862Z,13.91
2022-08-17T04:22:32.790Z,13.91
2022-08-17T04:25:18.258Z,13.90
2022-08-17T04:27:48.686Z,13.92
2022-08-17T04:30:15.547Z,13.92
2022-08-17T04:33:08.751Z,13.97
2022-08-17T04:35:44.930Z,14.04
2022-08-17T04:38:14.579Z,14.06
2022-08-17T04:40:59.663Z,14.02
2022-08-17T04:43:30.991Z,14.11
2022-08-17T04:46:09.627Z,14.22
2022-08-17T04:48:42.664Z,14.34
2022-08-17T04:51:21.942Z,14.45
2022-08-17T04:53:54.539Z,14.57
2022-08-17T04:56:22.669Z,14.57
2022-08-17T04:58:51.932Z,14.69
2022-08-17T05:01:23.129Z,14.64
2022-08-17T05:03:56.162Z,14.72
2022-08-17T05:06:23.587Z,14.81
2022-08-17T05:08:50.095Z,14.97
2022-08-17T05:11:16.791Z,15.03
2022-08-17T05:13:43.559Z,15.25
2022-08-17T05:16:10.651Z,15.36
2022-08-17T05:18:38.716Z,15.40
2022-08-17T05:21:06.620Z,15.64
2022-08-17T05:23:41.734Z,15.96
2022-08-17T05:26:23.154Z,16.24
2022-08-17T05:28:53.522Z,16.56
2022-08-17T05:31:21.021Z,16.99
2022-08-17T05:33:47.746Z,17.60
2022-08-17T05:36:42.721Z,18.86
2022-08-17T05:39:03.041Z,20.87
2022-08-17T05:41:29.588Z,22.44
2022-08-17T05:43:56.633Z,23.57
2022-08-17T05:46:28.706Z,24.36
2022-08-17T05:49:09.840Z,25.05
2022-08-17T05:52:10.012Z,25.20
2022-08-17T05:54:51.693Z,24.81
2022-08-17T05:57:43.521Z,24.78
2022-08-17T06:00:42.005Z,25.19
2022-08-17T06:03:27.299Z,25.92
2022-08-17T06:06:15.415Z,26.67
2022-08-17T06:08:51.689Z,26.33
2022-08-17T06:11:44.492Z,25.88
2022-08-17T06:14:38.555Z,24.88
2022-08-17T06:17:11.399Z,24.68
2022-08-17T06:19:37.788Z,24.54
2022-08-17T06:22:06.167Z,24.13
2022-08-17T06:25:01.159Z,23.56
2022-08-17T06:28:04.762Z,22.87
2022-08-17T06:30:58.487Z,22.40
2022-08-17T06:33:35.456Z,22.06
2022-08-17T06:36:26.362Z,21.93
2022-08-17T06:39:04.822Z,21.81
2022-08-17T06:41:53.696Z,21.85
2022-08-17T06:44:50.234Z,21.83
2022-08-17T06:47:29.287Z,21.93
2022-08-17T06:50:15.435Z,22.07
2022-08-17T06:52:56.356Z,22.37
2022-08-17T06:55:37.831Z,22.97
2022-08-17T06:58:15.849Z,23.25
2022-08-17T07:00:47.233Z,23.49
2022-08-17T07:03:20.875Z,23.99
2022-08-17T07:06:06.368Z,24.30
2022-08-17T07:08:51.193Z,24.47
2022-08-17T07:11:26.026Z,24.56
2022-08-17T07:14:00.809Z,24.74
2022-08-17T07:16:41.197Z,24.88
2022-08-17T07:19:11.028Z,24.88
2022-08-17T07:21:40.861Z,24.64
2022-08-17T07:24:29.176Z,24.43
2022-08-17T07:27:14.289Z,24.18
2022-08-17T07:29:46.309Z,24.03
2022-08-17T07:32:18.448Z,23.85
2022-08-17T07:35:04.556Z,23.95
2022-08-17T07:37:33.299Z,23.86
2022-08-17T07:40:15.832Z,24.01
2022-08-17T07:43:00.193Z,24.07
2022-08-17T07:45:45.487Z,24.35
2022-08-17T07:48:21.904Z,24.63
2022-08-17T07:50:50.815Z,24.95
2022-08-17T07:53:20.952Z,24.97
2022-08-17T07:55:47.742Z,25.22
2022-08-17T07:58:20.044Z,25.27
2022-08-17T08:01:02.045Z,25.32
2022-08-17T08:03:32.019Z,25.25
2022-08-17T08:06:01.982Z,25.20
2022-08-17T08:08:31.009Z,25.08
2022-08-17T08:11:05.437Z,24.85
2022-08-17T08:13:33.057Z,24.78
2022-08-17T08:16:24.155Z,24.60
2022-08-17T08:18:56.934Z,24.60
2022-08-17T08:21:55.154Z,23.98
2022-08-17T08:24:30.778Z,24.27
2022-08-17T08:27:31.345Z,24.44
2022-08-17T08:30:09.009Z,24.43
2022-08-17T08:33:27.028Z,23.94
2022-08-17T08:37:14.145Z,23.73
2022-08-17T08:39:19.318Z,23.04
2022-08-17T08:42:10.219Z,22.43
2022-08-17T08:45:00.113Z,22.21
2022-08-17T08:47:53.550Z,22.20
2022-08-17T08:50:48.821Z,21.93
2022-08-17T08:53:21.836Z,22.26
2022-08-17T08:55:54.795Z,22.51
2022-08-17T08:58:43.555Z,22.53
2022-08-17T09:01:47.327Z,22.72
2022-08-17T09:04:25.183Z,22.41
2022-08-17T09:07:07.285Z,22.40
2022-08-17T09:09:59.013Z,22.64
2022-08-17T09:12:48.636Z,22.86
2022-08-17T09:15:25.587Z,22.98
2022-08-17T09:18:30.407Z,22.79
2022-08-17T09:20:55.752Z,22.66
2022-08-17T09:23:43.740Z,22.58
2022-08-17T09:26:21.002Z,22.67
2022-08-17T09:28:51.028Z,22.33
2022-08-17T09:31:47.054Z,22.36
2022-08-17T09:34:19.747Z,22.65
2022-08-17T09:37:03.800Z,22.67
2022-08-17T09:39:38.905Z,22.63
2022-08-17T09:42:31.601Z,22.52
2022-08-17T09:45:02.752Z,22.58
2022-08-17T09:47:42.082Z,22.65
2022-08-17T09:50:20.130Z,22.67
2022-08-17T09:53:07.591Z,22.83
2022-08-17T09:56:15.153Z,23.03
2022-08-17T09:59:08.948Z,23.31
2022-08-17T10:01:45.963Z,23.32
2022-08-17T10:04:29.868Z,23.38
2022-08-17T10:07:52.581Z,22.95
2022-08-17T10:10:25.680Z,23.19
2022-08-17T10:13:03.971Z,23.37
2022-08-17T10:15:53.679Z,23.67
2022-08-17T10:18:46.134Z,24.09
2022-08-17T10:21:38.269Z,24.52
2022-08-17T10:25:23.089Z,24.72
2022-08-17T10:27:54.335Z,25.29
2022-08-17T10:30:26.750Z,25.80
2022-08-17T10:32:59.207Z,26.27
2022-08-17T10:35:50.471Z,26.57
2022-08-17T10:38:32.008Z,26.55
2022-08-17T10:41:16.857Z,26.49
2022-08-17T10:44:40.516Z,26.50
2022-08-17T10:47:18.097Z,26.28
2022-08-17T10:49:53.724Z,26.23
2022-08-17T10:52:20.402Z,25.40
2022-08-17T10:54:51.333Z,26.03
2022-08-17T10:57:40.877Z,26.23
2022-08-17T11:00:15.167Z,26.31
2022-08-17T11:02:51.792Z,26.25
2022-08-17T11:05:18.309Z,26.21
2022-08-17T11:07:59.772Z,25.02
2022-08-17T11:10:52.129Z,24.66
2022-08-17T11:13:44.784Z,24.70
2022-08-17T11:16:47.863Z,24.71
2022-08-17T11:19:41.059Z,24.20
2022-08-17T11:22:29.965Z,24.44
2022-08-17T11:25:15.033Z,24.69
2022-08-17T11:27:43.945Z,24.84
2022-08-17T11:30:12.086Z,24.61
2022-08-17T11:32:52.897Z,23.67
2022-08-17T11:35:21.309Z,24.02
2022-08-17T11:37:58.961Z,24.37
2022-08-17T11:40:38.541Z,23.71
2022-08-17T11:43:23.475Z,23.89
2022-08-17T11:46:14.675Z,23.88
2022-08-17T11:49:05.909Z,23.84
2022-08-17T11:52:05.160Z,25.09
2022-08-17T11:54:42.852Z,26.11
2022-08-17T11:57:41.791Z,27.39
2022-08-17T12:01:00.843Z,27.99
2022-08-17T12:03:39.139Z,27.27
2022-08-17T12:06:17.496Z,26.82
2022-08-17T12:08:51.606Z,27.28
2022-08-17T12:12:10.988Z,27.89
2022-08-17T12:14:51.651Z,28.36
2022-08-17T12:17:40.576Z,28.33
2022-08-17T12:20:21.403Z,27.94
2022-08-17T12:23:01.129Z,28.29
2022-08-17T12:25:38.991Z,27.92
2022-08-17T12:28:20.636Z,27.49
2022-08-17T12:30:52.173Z,28.42
2022-08-17T12:33:25.740Z,28.00
2022-08-17T12:36:00.621Z,28.59
2022-08-17T12:38:32.962Z,28.39
2022-08-17T12:41:21.482Z,28.89
2022-08-17T12:43:58.574Z,28.77
2022-08-17T12:46:25.008Z,29.50
2022-08-17T12:48:58.788Z,30.57
2022-08-17T12:51:28.802Z,30.02
2022-08-17T12:53:55.548Z,31.46
2022-08-17T12:56:21.991Z,30.91
2022-08-17T12:58:53.982Z,30.30
2022-08-17T13:01:21.069Z,29.72
2022-08-17T13:03:53.479Z,32.39
2022-08-17T13:06:36.094Z,31.06
2022-08-17T13:09:40.415Z,32.56
2022-08-17T13:12:08.224Z,30.69
2022-08-17T13:14:35.280Z,31.41
2022-08-17T13:17:08.584Z,31.03
2022-08-17T13:19:48.476Z,29.95
2022-08-17T13:22:15.087Z,29.69
2022-08-17T13:24:53.054Z,30.86
2022-08-17T13:27:21.609Z,31.94
2022-08-17T13:29:53.173Z,32.53
2022-08-17T13:32:34.079Z,30.69
2022-08-17T13:35:14.139Z,31.49
2022-08-17T13:37:57.692Z,32.23
2022-08-17T13:40:32.135Z,31.43
2022-08-17T13:42:59.059Z,31.04
2022-08-17T13:45:35.285Z,30.58
2022-08-17T13:48:08.511Z,31.57
2022-08-17T13:51:05.178Z,31.77
2022-08-17T13:53:37.317Z,31.98
2022-08-17T13:56:37.000Z,30.98
2022-08-17T13:59:07.985Z,30.67
2022-08-17T14:01:34.640Z,29.95
2022-08-17T14:04:04.751Z,31.41
2022-08-17T14:06:52.920Z,32.19
2022-08-17T14:09:24.015Z,32.66
2022-08-17T14:11:51.777Z,32.16
2022-08-17T14:14:18.638Z,31.73
2022-08-17T14:16:45.264Z,32.83
2022-08-17T14:19:13.412Z,31.59
2022-08-17T14:21:42.868Z,30.95
2022-08-17T14:24:16.903Z,33.03
2022-08-17T14:26:44.850Z,33.43
2022-08-17T14:29:12.683Z,33.08
2022-08-17T14:31:42.128Z,33.22
2022-08-17T14:34:12.545Z,32.77
2022-08-17T14:36:41.831Z,32.03
2022-08-17T14:39:15.680Z,31.86
2022-08-17T14:41:42.676Z,31.61
2022-08-17T14:44:13.123Z,31.56
2022-08-17T14:46:41.187Z,32.75
2022-08-17T14:49:10.139Z,32.26
2022-08-17T14:51:44.191Z,32.29
2022-08-17T14:54:33.353Z,33.01
2022-08-17T14:57:04.625Z,34.43
2022-08-17T14:59:46.812Z,32.77
2022-08-17T15:02:13.595Z,33.74
2022-08-17T15:04:45.367Z,32.48
2022-08-17T15:07:12.307Z,32.35
2022-08-17T15:09:39.021Z,32.65
2022-08-17T15:12:06.643Z,31.65
2022-08-17T15:14:35.493Z,31.90
2022-08-17T15:17:05.589Z,33.00
2022-08-17T15:19:32.093Z,32.37
2022-08-17T15:21:58.646Z,33.47
2022-08-17T15:24:25.089Z,33.11
2022-08-17T15:26:51.571Z,33.00
2022-08-17T15:29:18.068Z,31.39
2022-08-17T15:31:44.626Z,32.15
2022-08-17T15:34:11.165Z,32.90
2022-08-17T15:36:37.766Z,34.99
2022-08-17T15:39:07.850Z,33.51
2022-08-17T15:41:34.584Z,32.81
2022-08-17T15:44:01.097Z,34.44
2022-08-17T15:46:27.609Z,32.82
2022-08-17T15:48:58.223Z,33.45
2022-08-17T15:51:31.673Z,30.46
2022-08-17T15:54:04.393Z,29.20
2022-08-17T15:56:46.075Z,28.09
2022-08-17T15:59:12.545Z,28.06
2022-08-17T16:03:06.184Z,28.13
2022-08-17T16:04:28.426Z,28.44
2022-08-17T16:06:58.069Z,27.55
2022-08-17T16:09:24.540Z,27.76
2022-08-17T16:11:53.678Z,27.83
2022-08-17T16:14:22.380Z,27.69
2022-08-17T16:16:50.497Z,27.73
2022-08-17T16:19:16.979Z,27.70
2022-08-17T16:21:43.511Z,27.91
2022-08-17T16:24:12.885Z,27.75
2022-08-17T16:26:40.571Z,27.52
2022-08-17T16:29:08.458Z,27.31
2022-08-17T16:31:37.481Z,27.50
2022-08-17T16:34:17.671Z,27.52
2022-08-17T16:36:54.978Z,27.65
2022-08-17T16:39:25.385Z,27.64
2022-08-17T16:41:51.842Z,27.52
2022-08-17T16:44:21.254Z,27.43
2022-08-17T16:46:48.672Z,27.73
2022-08-17T16:49:29.648Z,27.55
2022-08-17T16:52:03.910Z,27.46
2022-08-17T16:54:30.626Z,27.25
2022-08-17T16:56:57.202Z,27.46
2022-08-17T16:59:39.411Z,27.59
2022-08-17T17:02:12.349Z,27.49
2022-08-17T17:04:51.611Z,27.40
2022-08-17T17:07:20.661Z,27.58
2022-08-17T17:09:52.612Z,27.81
2022-08-17T17:12:19.194Z,28.04
2022-08-17T17:15:01.655Z,27.61
2022-08-17T17:17:37.462Z,27.51
2022-08-17T17:20:16.014Z,27.63
2022-08-17T17:23:00.389Z,27.15
2022-08-17T17:25:36.494Z,27.30
2022-08-17T17:28:10.853Z,27.59
2022-08-17T17:30:49.355Z,27.17
2022-08-17T17:33:23.571Z,27.02
2022-08-17T17:36:08.065Z,27.15
2022-08-17T17:38:42.914Z,27.23
2022-08-17T17:41:25.323Z,27.26
2022-08-17T17:44:01.879Z,27.11
2022-08-17T17:46:37.966Z,27.05
2022-08-17T17:49:05.954Z,27.19
2022-08-17T17:52:07.716Z,27.21
2022-08-17T17:54:33.650Z,26.94
2022-08-17T17:57:07.130Z,26.96
2022-08-17T18:00:15.020Z,26.95
2022-08-17T18:02:53.193Z,26.99
2022-08-17T18:05:31.934Z,26.81
2022-08-17T18:08:32.200Z,26.76
2022-08-17T18:11:07.867Z,26.52
2022-08-17T18:13:56.263Z,26.59
2022-08-17T18:16:23.360Z,26.32
2022-08-17T18:18:52.407Z,26.34
2022-08-17T18:21:27.470Z,26.28
2022-08-17T18:23:59.555Z,26.30
2022-08-17T18:26:55.324Z,26.07
2022-08-17T18:29:27.532Z,25.91
2022-08-17T18:32:17.916Z,25.94
2022-08-17T18:34:48.601Z,25.75
2022-08-17T18:37:31.802Z,25.64
2022-08-17T18:39:58.584Z,25.51
2022-08-17T18:42:27.974Z,25.28
2022-08-17T18:44:55.663Z,25.38
2022-08-17T18:47:28.744Z,25.35
2022-08-17T18:49:58.768Z,25.27
2022-08-17T18:52:32.720Z,25.19
2022-08-17T18:55:20.665Z,25.01
2022-08-17T18:58:12.604Z,24.94
2022-08-17T19:00:42.529Z,24.86
2022-08-17T19:03:18.029Z,24.78
2022-08-17T19:05:54.871Z,24.54
2022-08-17T19:08:32.867Z,24.44
2022-08-17T19:11:10.094Z,24.28
2022-08-17T19:13:41.481Z,24.11
2022-08-17T19:16:12.300Z,23.96
2022-08-17T19:18:51.997Z,23.76
2022-08-17T19:21:23.988Z,23.37
2022-08-17T19:23:53.783Z,23.27
2022-08-17T19:26:54.283Z,23.24
2022-08-17T19:29:34.631Z,23.26
2022-08-17T19:32:01.599Z,23.21
2022-08-17T19:34:33.930Z,23.03
2022-08-17T19:37:08.734Z,22.85
2022-08-17T19:40:02.815Z,22.79
2022-08-17T19:42:49.641Z,22.65
2022-08-17T19:45:25.863Z,22.55
2022-08-17T19:48:12.387Z,22.35
2022-08-17T19:50:57.619Z,22.06
2022-08-17T19:54:03.728Z,21.77
2022-08-17T19:56:43.499Z,21.62
2022-08-17T19:59:48.645Z,21.58
2022-08-17T20:02:37.644Z,21.46
2022-08-17T20:05:19.879Z,21.67
2022-08-17T20:07:51.396Z,21.64
2022-08-17T20:10:38.233Z,21.43
2022-08-17T20:13:11.157Z,21.38
2022-08-17T20:15:42.439Z,21.26
2022-08-17T20:18:47.473Z,21.17
2022-08-17T20:21:20.210Z,21.01
2022-08-17T20:23:56.187Z,20.83
2022-08-17T20:26:28.324Z,20.75
2022-08-17T20:29:08.938Z,20.75
2022-08-17T20:31:51.791Z,20.75
2022-08-17T20:34:31.050Z,20.71
2022-08-17T20:37:04.226Z,20.57
2022-08-17T20:39:38.649Z,20.48
2022-08-17T20:42:29.967Z,20.26
2022-08-17T20:45:05.348Z,20.18
2022-08-17T20:47:55.141Z,20.17
2022-08-17T20:50:37.800Z,20.09
2022-08-17T20:53:08.539Z,19.94
2022-08-17T20:55:51.990Z,19.87
2022-08-17T20:58:25.234Z,19.79
2022-08-17T21:00:57.455Z,19.78
2022-08-17T21:03:24.083Z,19.81
2022-08-17T21:06:14.416Z,19.76
2022-08-17T21:09:13.046Z,19.43
2022-08-17T21:11:56.989Z,19.36
2022-08-17T21:14:40.997Z,18.92
2022-08-17T21:17:33.713Z,19.15
2022-08-17T21:20:12.681Z,19.18
2022-08-17T21:22:53.365Z,19.21
2022-08-17T21:25:32.405Z,19.24
2022-08-17T21:28:20.358Z,19.25
2022-08-17T21:30:59.156Z,19.28
2022-08-17T21:33:31.430Z,19.27
2022-08-17T21:36:00.618Z,19.21
2022-08-17T21:38:35.356Z,18.74
2022-08-17T21:41:01.977Z,18.34
2022-08-17T21:43:35.196Z,18.51
2022-08-17T21:46:06.724Z,18.51
2022-08-17T21:48:43.832Z,18.42
2022-08-17T21:51:19.349Z,18.55
2022-08-17T21:53:52.693Z,18.49
2022-08-17T21:56:26.059Z,18.57
2022-08-17T21:59:19.393Z,18.36
2022-08-17T22:01:57.601Z,18.56
2022-08-17T22:04:41.566Z,18.45
2022-08-17T22:07:11.535Z,18.51
2022-08-17T22:09:46.895Z,18.58
2022-08-17T22:12:22.086Z,18.45
2022-08-17T22:15:01.581Z,17.97
2022-08-17T22:17:29.396Z,18.01
2022-08-17T22:20:00.458Z,18.11
2022-08-17T22:23:08.849Z,18.19
2022-08-17T22:25:38.870Z,18.32
2022-08-17T22:28:08.737Z,18.33
2022-08-17T22:30:58.057Z,18.42
2022-08-17T22:33:43.613Z,18.36
2022-08-17T22:36:26.208Z,18.23
2022-08-17T22:38:55.788Z,18.16
2022-08-17T22:41:57.127Z,17.99
2022-08-17T22:44:30.048Z,17.80
2022-08-17T22:47:00.493Z,17.93
2022-08-17T22:49:34.149Z,17.77
2022-08-17T22:52:11.220Z,17.61
2022-08-17T22:54:56.058Z,17.55
2022-08-17T22:57:42.882Z,17.70
2022-08-17T23:00:31.783Z,17.85
2022-08-17T23:03:28.111Z,18.11
2022-08-17T23:06:10.572Z,18.30
2022-08-17T23:08:49.565Z,18.32
2022-08-17T23:11:16.265Z,18.44
2022-08-17T23:13:42.921Z,18.51
2022-08-17T23:16:09.470Z,18.59
2022-08-17T23:18:36.315Z,18.67
2022-08-17T23:21:03.224Z,18.77
2022-08-17T23:23:29.723Z,18.84
2022-08-17T23:25:56.160Z,18.84
2022-08-17T23:28:22.609Z,18.87
2022-08-17T23:30:49.102Z,18.81
2022-08-17T23:33:26.461Z,18.73
2022-08-17T23:35:53.925Z,18.82
2022-08-17T23:38:20.502Z,18.70
2022-08-17T23:40:46.950Z,18.79
2022-08-17T23:43:23.665Z,18.85
2022-08-17T23:45:53.682Z,18.67
2022-08-17T23:48:35.346Z,18.57
2022-08-17T23:51:04.623Z,18.58
2022-08-17T23:53:34.457Z,18.54
2022-08-17T23:56:06.968Z,18.52
2022-08-17T23:58:38.341Z,18.40
